Time;durP1;ratioP1;P1;durP2;ratioP2;P2;SDS_P1;SDS_P2;PMS_P1;PMS_P2;Temp;Humidity;BMP_temperature;BMP_pressure;BME280_temperature;BME280_humidity;BME280_pressure;Samples;Min_cycle;Max_cycle;Signal;HPM_P1;HPM_P2
2022/11/06 00:00:25;;;;;;;6.43;3.50;;;;;;;;;;1035065;28;20489;-78
2022/11/06 00:00:56;;;;;;;5.05;3.35;;;;;;;;;;1034613;28;20049;-78
2022/11/06 00:01:27;;;;;;;5.47;3.60;;;;;;;;;;1030953;28;20038;-77
2022/11/06 00:01:58;;;;;;;5.13;2.88;;;;;;;;;;1028703;28;20588;-77
2022/11/06 00:02:29;;;;;;;6.97;3.33;;;;;;;;;;1026882;28;20019;-77
2022/11/06 00:03:01;;;;;;;7.57;3.60;;;;;;;;;;1023452;28;20414;-77
2022/11/06 00:03:32;;;;;;;5.72;3.25;;;;;;;;;;1027616;28;20500;-77
2022/11/06 00:04:03;;;;;;;9.43;4.78;;;;;;;;;;1030973;28;20073;-77
2022/11/06 00:04:34;;;;;;;6.60;4.22;;;;;;;;;;1034978;28;20022;-77
2022/11/06 00:06:47;;;;;;;5.43;3.13;;;;;;;;;;1032042;28;20118;-76
2022/11/06 00:07:18;;;;;;;6.88;3.22;;;;;;;;;;1030561;28;20061;-76
2022/11/06 00:07:49;;;;;;;5.90;3.83;;;;;;;;;;1030585;28;20072;-76
2022/11/06 00:08:27;;;;;;;8.18;4.32;;;;;;;;;;1031325;28;20481;-76
2022/11/06 00:08:59;;;;;;;7.25;3.97;;;;;;;;;;1034454;28;20133;-76
2022/11/06 00:09:30;;;;;;;6.00;4.13;;;;;;;;;;1033633;28;20029;-75
2022/11/06 00:10:00;;;;;;;6.45;3.67;;;;;;;;;;1026667;28;20026;-78
2022/11/06 00:10:31;;;;;;;6.88;3.75;;;;;;;;;;1030468;28;21155;-77
2022/11/06 00:11:10;;;;;;;14.30;4.50;;;;;;;;;;1030774;28;20389;-76
2022/11/06 00:11:41;;;;;;;5.35;3.08;;;;;;;;;;1030790;28;20025;-76
2022/11/06 00:12:12;;;;;;;4.60;3.38;;;;;;;;;;1032850;28;20022;-77
2022/11/06 00:12:43;;;;;;;9.65;4.20;;;;;;;;;;1036165;28;20014;-77
2022/11/06 00:13:14;;;;;;;5.32;3.50;;;;;;;;;;1035192;28;20014;-77
2022/11/06 00:13:46;;;;;;;6.47;3.65;;;;;;;;;;1034644;28;20018;-77
2022/11/06 00:14:17;;;;;;;8.23;3.90;;;;;;;;;;1034707;28;20022;-77
2022/11/06 00:14:48;;;;;;;5.82;3.35;;;;;;;;;;1035193;28;20640;-77
2022/11/06 00:15:19;;;;;;;5.07;3.08;;;;;;;;;;1038595;28;20546;-78
2022/11/06 00:15:50;;;;;;;6.00;3.78;;;;;;;;;;1035360;28;20054;-78
2022/11/06 00:16:21;;;;;;;8.05;4.63;;;;;;;;;;1034645;28;20014;-77
2022/11/06 00:16:52;;;;;;;6.97;3.92;;;;;;;;;;1030544;28;20141;-77
2022/11/06 00:17:23;;;;;;;7.32;3.38;;;;;;;;;;1030541;28;20768;-77
2022/11/06 00:17:54;;;;;;;7.50;3.70;;;;;;;;;;1030633;28;20026;-77
2022/11/06 00:18:26;;;;;;;7.07;4.10;;;;;;;;;;1031620;28;20107;-77
2022/11/06 00:18:59;;;;;;;6.47;3.58;;;;;;;;;;1032876;28;20018;-77
2022/11/06 00:19:30;;;;;;;6.72;3.85;;;;;;;;;;1034629;28;20361;-78
2022/11/06 00:20:01;;;;;;;7.68;4.22;;;;;;;;;;1030698;28;20536;-77
2022/11/06 00:20:32;;;;;;;5.65;3.72;;;;;;;;;;1028628;28;20050;-78
2022/11/06 00:21:10;;;;;;;7.88;4.38;;;;;;;;;;1032096;28;20038;-77
2022/11/06 00:21:41;;;;;;;8.82;3.53;;;;;;;;;;1030582;28;20445;-77
2022/11/06 00:22:12;;;;;;;6.60;3.78;;;;;;;;;;1031542;28;20517;-77
2022/11/06 00:22:43;;;;;;;6.38;4.18;;;;;;;;;;1030703;28;20125;-78
2022/11/06 00:23:14;;;;;;;6.13;3.28;;;;;;;;;;1031124;28;20014;-78
2022/11/06 00:23:45;;;;;;;6.05;3.40;;;;;;;;;;1030764;28;20018;-76
2022/11/06 00:24:16;;;;;;;8.35;4.18;;;;;;;;;;1030437;28;20601;-79
2022/11/06 00:24:48;;;;;;;4.65;3.33;;;;;;;;;;1030736;28;20822;-77
2022/11/06 00:25:19;;;;;;;5.15;3.80;;;;;;;;;;1027030;28;20089;-77
2022/11/06 00:25:54;;;;;;;5.85;3.17;;;;;;;;;;1029931;28;21511;-77
2022/11/06 00:26:26;;;;;;;6.03;4.82;;;;;;;;;;1030897;28;20013;-77
2022/11/06 00:26:57;;;;;;;6.22;4.00;;;;;;;;;;1031059;28;20025;-77
2022/11/06 00:27:28;;;;;;;9.35;5.22;;;;;;;;;;1030456;28;20029;-78
2022/11/06 00:27:59;;;;;;;6.97;3.42;;;;;;;;;;1026444;28;20019;-77
2022/11/06 00:28:30;;;;;;;7.75;3.88;;;;;;;;;;1027400;28;20023;-78
2022/11/06 00:29:02;;;;;;;5.50;3.17;;;;;;;;;;1023723;28;20016;-78
2022/11/06 00:29:33;;;;;;;6.78;4.10;;;;;;;;;;1030967;28;20026;-77
2022/11/06 00:30:08;;;;;;;5.78;3.58;;;;;;;;;;1030560;28;20018;-77
2022/11/06 00:30:39;;;;;;;6.47;3.20;;;;;;;;;;1027083;28;20027;-77
2022/11/06 00:31:11;;;;;;;6.65;3.50;;;;;;;;;;1027200;28;20038;-77
2022/11/06 00:31:42;;;;;;;7.20;3.28;;;;;;;;;;1027478;28;20018;-78
2022/11/06 00:32:13;;;;;;;5.95;3.30;;;;;;;;;;1027087;28;20114;-78
2022/11/06 00:32:44;;;;;;;7.18;3.60;;;;;;;;;;1034091;28;20124;-77
2022/11/06 00:33:15;;;;;;;5.53;2.70;;;;;;;;;;1030520;28;20025;-76
2022/11/06 00:33:46;;;;;;;7.18;3.38;;;;;;;;;;1027707;28;20015;-76
2022/11/06 00:34:17;;;;;;;4.93;3.13;;;;;;;;;;1026349;28;20479;-77
2022/11/06 00:34:48;;;;;;;8.30;3.30;;;;;;;;;;1022611;29;20023;-77
2022/11/06 00:35:19;;;;;;;11.50;4.78;;;;;;;;;;1022717;28;20091;-77
2022/11/06 00:35:50;;;;;;;7.00;3.50;;;;;;;;;;1024694;28;20019;-76
2022/11/06 00:36:22;;;;;;;8.18;3.72;;;;;;;;;;1030952;28;20022;-76
2022/11/06 00:36:53;;;;;;;6.00;3.95;;;;;;;;;;1030158;28;20081;-77
2022/11/06 00:37:24;;;;;;;8.27;4.30;;;;;;;;;;1030540;28;20018;-78
2022/11/06 00:37:55;;;;;;;7.38;4.22;;;;;;;;;;1026609;28;20023;-76
2022/11/06 00:38:26;;;;;;;4.95;3.13;;;;;;;;;;1026631;28;20486;-77
2022/11/06 00:38:57;;;;;;;8.23;3.17;;;;;;;;;;1027272;28;20426;-77
2022/11/06 00:39:28;;;;;;;18.08;4.07;;;;;;;;;;1032393;28;20060;-77
2022/11/06 00:39:59;;;;;;;7.70;4.03;;;;;;;;;;1030815;28;20755;-76
2022/11/06 00:40:30;;;;;;;7.20;3.42;;;;;;;;;;1034736;28;20548;-77
2022/11/06 00:41:03;;;;;;;8.20;3.40;;;;;;;;;;1034657;28;20076;-76
2022/11/06 00:41:34;;;;;;;4.97;3.08;;;;;;;;;;1035261;28;20014;-81
2022/11/06 00:42:05;;;;;;;5.18;3.40;;;;;;;;;;1035165;28;20014;-77
2022/11/06 00:42:36;;;;;;;5.90;2.90;;;;;;;;;;1034487;28;20365;-77
2022/11/06 00:43:06;;;;;;;4.88;3.20;;;;;;;;;;1030498;28;20077;-77
2022/11/06 00:43:37;;;;;;;7.82;3.80;;;;;;;;;;1030798;28;20437;-78
2022/11/06 00:44:09;;;;;;;7.93;3.42;;;;;;;;;;1031022;28;20015;-77
2022/11/06 00:44:40;;;;;;;6.40;3.50;;;;;;;;;;1031255;28;20026;-77
2022/11/06 00:45:11;;;;;;;7.65;3.58;;;;;;;;;;1034465;28;20053;-78
2022/11/06 00:45:42;;;;;;;5.28;2.85;;;;;;;;;;1034555;28;20057;-77
2022/11/06 00:46:13;;;;;;;4.63;3.35;;;;;;;;;;1032513;28;20385;-77
2022/11/06 00:46:44;;;;;;;7.32;3.70;;;;;;;;;;1035356;28;20130;-77
2022/11/06 00:47:15;;;;;;;8.35;3.80;;;;;;;;;;1030370;28;20022;-76
2022/11/06 00:47:46;;;;;;;7.68;3.38;;;;;;;;;;1030992;28;20022;-76
2022/11/06 00:48:17;;;;;;;6.70;3.13;;;;;;;;;;1032217;28;20022;-76
2022/11/06 00:48:48;;;;;;;7.78;3.70;;;;;;;;;;1030968;28;20142;-77
2022/11/06 00:49:19;;;;;;;5.53;3.78;;;;;;;;;;1034863;28;20057;-77
2022/11/06 00:49:50;;;;;;;5.68;3.40;;;;;;;;;;1038719;28;20041;-78
2022/11/06 00:50:25;;;;;;;5.53;3.60;;;;;;;;;;1038280;28;20037;-77
2022/11/06 00:51:00;;;;;;;5.13;3.15;;;;;;;;;;1035127;28;20022;-77
2022/11/06 00:51:38;;;;;;;6.10;3.58;;;;;;;;;;1034390;28;20049;-78
2022/11/06 00:52:09;;;;;;;5.50;3.05;;;;;;;;;;1030380;28;20022;-77
2022/11/06 00:52:40;;;;;;;6.13;3.30;;;;;;;;;;1030562;28;20027;-77
2022/11/06 00:53:10;;;;;;;6.10;3.15;;;;;;;;;;1030632;28;20029;-77
2022/11/06 00:53:42;;;;;;;6.20;3.67;;;;;;;;;;1030659;28;20060;-77
2022/11/06 00:54:14;;;;;;;7.40;3.72;;;;;;;;;;1031254;28;20018;-78
2022/11/06 00:54:44;;;;;;;6.53;4.65;;;;;;;;;;1031096;28;20014;-76
2022/11/06 00:55:15;;;;;;;7.53;3.63;;;;;;;;;;1033148;28;20849;-77
2022/11/06 00:55:46;;;;;;;4.10;2.70;;;;;;;;;;1034636;28;20033;-78
2022/11/06 00:56:18;;;;;;;6.03;4.10;;;;;;;;;;1034621;28;20022;-77
2022/11/06 00:56:49;;;;;;;4.50;2.80;;;;;;;;;;1035083;28;20017;-76
2022/11/06 00:57:20;;;;;;;10.27;4.18;;;;;;;;;;1034447;28;20053;-76
2022/11/06 00:57:51;;;;;;;7.55;3.97;;;;;;;;;;1030487;28;20073;-78
2022/11/06 00:58:22;;;;;;;5.88;3.33;;;;;;;;;;1030519;28;20076;-77
2022/11/06 00:58:53;;;;;;;8.35;4.45;;;;;;;;;;1030668;28;20142;-76
2022/11/06 00:59:24;;;;;;;7.68;3.67;;;;;;;;;;1032640;28;20010;-77
2022/11/06 00:59:55;;;;;;;6.90;4.65;;;;;;;;;;1034512;28;20025;-77
2022/11/06 01:00:26;;;;;;;6.57;3.40;;;;;;;;;;1030496;28;20033;-77
2022/11/06 01:01:05;;;;;;;7.47;3.60;;;;;;;;;;1029064;28;20026;-76
2022/11/06 01:01:40;;;;;;;6.30;4.55;;;;;;;;;;1029712;28;20070;-77
2022/11/06 01:02:11;;;;;;;7.82;3.67;;;;;;;;;;1030884;28;20023;-78
2022/11/06 01:02:42;;;;;;;5.95;3.50;;;;;;;;;;1030445;28;20014;-77
2022/11/06 01:03:13;;;;;;;6.70;4.18;;;;;;;;;;1030346;28;20120;-78
2022/11/06 01:03:45;;;;;;;6.72;3.50;;;;;;;;;;1029151;28;20113;-78
2022/11/06 01:04:17;;;;;;;4.90;3.10;;;;;;;;;;1031090;28;20014;-77
2022/11/06 01:04:48;;;;;;;8.73;4.22;;;;;;;;;;1030841;28;20054;-78
2022/11/06 01:05:19;;;;;;;8.30;3.63;;;;;;;;;;1030783;28;20048;-77
2022/11/06 01:05:50;;;;;;;7.57;3.70;;;;;;;;;;1031601;28;20018;-77
2022/11/06 01:06:23;;;;;;;5.68;3.67;;;;;;;;;;1034549;28;20026;-77
2022/11/06 01:06:58;;;;;;;9.73;3.80;;;;;;;;;;1030383;28;20036;-77
2022/11/06 01:07:29;;;;;;;9.30;4.50;;;;;;;;;;1030985;28;20022;-77
2022/11/06 01:08:00;;;;;;;6.32;3.80;;;;;;;;;;1030149;28;20022;-79
2022/11/06 01:08:31;;;;;;;7.00;3.42;;;;;;;;;;1030057;28;20019;-77
2022/11/06 01:09:03;;;;;;;3.75;2.72;;;;;;;;;;1030527;28;20026;-77
2022/11/06 01:09:34;;;;;;;5.20;3.20;;;;;;;;;;1031460;28;20390;-77
2022/11/06 01:10:05;;;;;;;8.20;4.43;;;;;;;;;;1033032;28;20503;-77
2022/11/06 01:10:36;;;;;;;6.32;3.80;;;;;;;;;;1031928;28;20033;-78
2022/11/06 01:11:09;;;;;;;6.40;3.15;;;;;;;;;;1030262;28;20030;-77
2022/11/06 01:11:42;;;;;;;6.85;3.72;;;;;;;;;;1030258;28;20022;-77
2022/11/06 01:12:13;;;;;;;6.60;3.08;;;;;;;;;;1031941;28;20045;-78
2022/11/06 01:12:44;;;;;;;7.22;3.53;;;;;;;;;;1030508;28;20048;-77
2022/11/06 01:13:16;;;;;;;5.65;3.15;;;;;;;;;;1030380;28;20111;-76
2022/11/06 01:13:48;;;;;;;5.30;3.92;;;;;;;;;;1034303;28;20381;-77
2022/11/06 01:14:20;;;;;;;5.90;3.70;;;;;;;;;;1034099;28;20033;-77
2022/11/06 01:14:51;;;;;;;5.75;3.25;;;;;;;;;;1035462;28;20041;-76
2022/11/06 01:15:22;;;;;;;8.25;3.78;;;;;;;;;;1034285;28;20048;-76
2022/11/06 01:15:53;;;;;;;10.00;4.32;;;;;;;;;;1034370;28;20155;-77
2022/11/06 01:16:25;;;;;;;6.30;3.38;;;;;;;;;;1034199;28;20108;-77
2022/11/06 01:16:56;;;;;;;4.82;2.70;;;;;;;;;;1030214;28;20453;-78
2022/11/06 01:17:27;;;;;;;6.15;3.50;;;;;;;;;;1031263;28;20026;-78
2022/11/06 01:17:59;;;;;;;7.43;3.33;;;;;;;;;;1030338;28;20025;-77
2022/11/06 01:18:30;;;;;;;8.65;3.85;;;;;;;;;;1030589;28;20145;-78
2022/11/06 01:19:01;;;;;;;6.18;3.75;;;;;;;;;;1034569;28;20037;-77
2022/11/06 01:19:32;;;;;;;9.55;3.30;;;;;;;;;;1030789;28;20090;-77
2022/11/06 01:20:04;;;;;;;6.25;3.65;;;;;;;;;;1034935;28;20018;-78
2022/11/06 01:20:37;;;;;;;6.03;3.15;;;;;;;;;;1034048;28;20044;-77
2022/11/06 01:21:09;;;;;;;7.25;3.13;;;;;;;;;;1034436;28;20070;-78
2022/11/06 01:21:41;;;;;;;6.72;3.08;;;;;;;;;;1034183;28;20026;-77
2022/11/06 01:22:12;;;;;;;5.90;3.00;;;;;;;;;;1035076;28;20239;-76
2022/11/06 01:22:43;;;;;;;7.45;3.22;;;;;;;;;;1030474;28;20489;-76
2022/11/06 01:23:14;;;;;;;10.50;3.10;;;;;;;;;;1030691;28;20528;-77
2022/11/06 01:23:46;;;;;;;8.60;3.17;;;;;;;;;;1029914;28;20021;-77
2022/11/06 01:24:18;;;;;;;3.83;2.42;;;;;;;;;;1030376;28;20053;-77
2022/11/06 01:24:49;;;;;;;5.13;3.35;;;;;;;;;;1035161;28;20493;-77
2022/11/06 01:25:20;;;;;;;6.10;3.28;;;;;;;;;;1027302;28;20477;-77
2022/11/06 01:25:55;;;;;;;6.60;3.08;;;;;;;;;;1030179;28;20027;-78
2022/11/06 01:26:27;;;;;;;7.32;3.45;;;;;;;;;;1030286;28;20585;-78
2022/11/06 01:26:58;;;;;;;7.55;3.47;;;;;;;;;;1031114;28;20084;-78
2022/11/06 01:27:29;;;;;;;6.05;3.53;;;;;;;;;;1031717;28;20169;-76
2022/11/06 01:28:00;;;;;;;13.98;4.80;;;;;;;;;;1030289;28;20018;-77
2022/11/06 01:28:31;;;;;;;5.82;3.65;;;;;;;;;;1030075;28;20410;-78
2022/11/06 01:29:02;;;;;;;7.28;3.38;;;;;;;;;;1030497;28;20046;-78
2022/11/06 01:29:33;;;;;;;7.82;3.50;;;;;;;;;;1034218;28;20053;-78
2022/11/06 01:30:05;;;;;;;7.95;3.58;;;;;;;;;;1035386;28;20105;-78
2022/11/06 01:30:39;;;;;;;7.53;3.47;;;;;;;;;;1032508;28;20022;-78
2022/11/06 01:31:12;;;;;;;8.25;3.83;;;;;;;;;;1030384;28;20101;-78
2022/11/06 01:31:43;;;;;;;6.75;4.03;;;;;;;;;;1030478;28;20022;-78
2022/11/06 01:32:14;;;;;;;7.25;2.78;;;;;;;;;;1031320;28;20138;-77
2022/11/06 01:32:45;;;;;;;7.90;4.13;;;;;;;;;;1035140;28;20098;-75
2022/11/06 01:33:16;;;;;;;5.07;2.45;;;;;;;;;;1031315;28;20026;-76
2022/11/06 01:33:47;;;;;;;6.07;3.28;;;;;;;;;;1030372;28;20129;-76
2022/11/06 01:34:18;;;;;;;7.13;3.67;;;;;;;;;;1038197;28;20496;-77
2022/11/06 01:34:50;;;;;;;5.80;2.90;;;;;;;;;;1038333;28;20762;-77
2022/11/06 01:35:21;;;;;;;3.78;2.53;;;;;;;;;;1038708;28;20014;-77
2022/11/06 01:35:52;;;;;;;7.85;2.83;;;;;;;;;;1033759;28;20108;-77
2022/11/06 01:36:23;;;;;;;11.35;4.05;;;;;;;;;;1034451;28;20025;-77
2022/11/06 01:36:54;;;;;;;4.63;2.63;;;;;;;;;;1030553;28;20018;-78
2022/11/06 01:37:25;;;;;;;4.88;3.03;;;;;;;;;;1030415;28;20098;-77
2022/11/06 01:37:56;;;;;;;7.80;3.80;;;;;;;;;;1031248;28;20398;-77
2022/11/06 01:38:27;;;;;;;7.82;3.03;;;;;;;;;;1030391;28;20019;-77
2022/11/06 01:39:00;;;;;;;6.20;3.42;;;;;;;;;;1030362;28;20022;-77
2022/11/06 01:39:31;;;;;;;5.78;3.22;;;;;;;;;;1030295;28;20018;-77
2022/11/06 01:40:02;;;;;;;6.63;3.03;;;;;;;;;;1030683;28;20022;-77
2022/11/06 01:40:39;;;;;;;7.28;3.65;;;;;;;;;;1030369;28;20042;-76
2022/11/06 01:41:17;;;;;;;8.60;3.60;;;;;;;;;;1026376;28;20022;-76
2022/11/06 01:41:48;;;;;;;;;;;;;;;;;;1028798;28;20023;-78
2022/11/06 01:42:20;;;;;;;7.43;2.90;;;;;;;;;;1030496;28;19909;-76
2022/11/06 01:42:51;;;;;;;5.63;2.60;;;;;;;;;;1026923;28;20274;-77
2022/11/06 01:43:24;;;;;;;5.88;3.15;;;;;;;;;;1022431;29;20123;-77
2022/11/06 01:43:56;;;;;;;8.48;3.13;;;;;;;;;;1022229;29;20031;-77
2022/11/06 01:44:43;;;;;;;5.07;3.30;;;;;;;;;;1028147;28;20050;-78
2022/11/06 01:45:31;;;;;;;6.88;3.50;;;;;;;;;;1033787;28;20025;-77
2022/11/06 01:46:01;;;;;;;;;;;;;;;;;;1034356;28;20037;-78
2022/11/06 01:46:34;;;;;;;5.53;3.10;;;;;;;;;;1030754;28;19910;-78
2022/11/06 01:47:16;;;;;;;3.80;2.58;;;;;;;;;;1030617;28;20015;-77
2022/11/06 01:47:47;;;;;;;5.35;3.08;;;;;;;;;;1031278;28;20497;-77
2022/11/06 01:48:20;;;;;;;4.32;2.67;;;;;;;;;;1030254;28;20508;-77
2022/11/06 01:48:53;;;;;;;8.65;3.03;;;;;;;;;;1030343;28;20026;-77
2022/11/06 01:49:25;;;;;;;6.80;3.63;;;;;;;;;;1028460;28;20035;-77
2022/11/06 01:50:01;;;;;;;7.10;3.05;;;;;;;;;;1026396;28;20126;-77
2022/11/06 01:50:32;;;;;;;7.95;2.78;;;;;;;;;;1028311;28;20568;-77
2022/11/06 01:51:03;;;;;;;5.00;2.50;;;;;;;;;;1026228;28;20338;-77
2022/11/06 01:51:37;;;;;;;3.30;2.35;;;;;;;;;;1026852;28;20038;-78
2022/11/06 01:52:09;;;;;;;6.93;3.10;;;;;;;;;;1026079;28;20030;-77
2022/11/06 01:52:41;;;;;;;5.35;3.08;;;;;;;;;;1027339;28;20047;-77
2022/11/06 01:53:12;;;;;;;7.43;2.88;;;;;;;;;;1027768;28;20027;-78
2022/11/06 01:53:43;;;;;;;6.90;3.45;;;;;;;;;;1030813;28;20168;-77
2022/11/06 01:54:15;;;;;;;4.68;2.35;;;;;;;;;;1030376;28;20379;-78
2022/11/06 01:54:48;;;;;;;4.32;2.22;;;;;;;;;;1030476;28;20501;-77
2022/11/06 01:55:28;;;;;;;4.45;2.67;;;;;;;;;;1030192;28;20413;-77
2022/11/06 01:56:02;;;;;;;4.22;2.90;;;;;;;;;;1032584;28;20056;-76
2022/11/06 01:56:33;;;;;;;5.18;2.40;;;;;;;;;;1034285;28;20025;-77
2022/11/06 01:57:05;;;;;;;5.80;2.88;;;;;;;;;;1034884;28;20026;-77
2022/11/06 01:57:36;;;;;;;7.03;3.08;;;;;;;;;;1034628;28;20029;-77
2022/11/06 01:58:08;;;;;;;5.60;2.40;;;;;;;;;;1035168;28;20025;-77
2022/11/06 01:58:41;;;;;;;7.40;2.95;;;;;;;;;;1034171;28;20026;-78
2022/11/06 01:59:15;;;;;;;5.45;3.03;;;;;;;;;;1030449;28;20053;-77
2022/11/06 01:59:46;;;;;;;6.07;2.80;;;;;;;;;;1031225;28;20153;-77
2022/11/06 02:00:19;;;;;;;5.78;2.83;;;;;;;;;;1034477;28;20026;-77
2022/11/06 02:00:50;;;;;;;5.13;2.72;;;;;;;;;;1031182;28;20086;-77
2022/11/06 02:01:21;;;;;;;5.93;3.22;;;;;;;;;;1029711;28;20378;-77
2022/11/06 02:01:52;;;;;;;4.72;3.03;;;;;;;;;;1030652;28;20085;-77
2022/11/06 02:02:23;;;;;;;6.75;3.47;;;;;;;;;;1030256;28;20145;-77
2022/11/06 02:02:55;;;;;;;7.97;2.70;;;;;;;;;;1030009;28;20033;-77
2022/11/06 02:03:26;;;;;;;5.35;2.33;;;;;;;;;;1026845;28;20059;-78
2022/11/06 02:04:00;;;;;;;5.53;2.88;;;;;;;;;;1021995;28;20394;-77
2022/11/06 02:04:33;;;;;;;4.55;2.75;;;;;;;;;;1021932;29;20028;-78
2022/11/06 02:05:04;;;;;;;6.75;3.30;;;;;;;;;;1019108;29;20028;-78
2022/11/06 02:05:35;;;;;;;7.30;2.80;;;;;;;;;;1023042;28;20430;-77
2022/11/06 02:06:06;;;;;;;6.28;3.13;;;;;;;;;;1026603;28;20023;-78
2022/11/06 02:06:37;;;;;;;5.43;2.17;;;;;;;;;;1029524;28;20481;-78
2022/11/06 02:07:09;;;;;;;9.25;3.28;;;;;;;;;;1029938;28;20045;-77
2022/11/06 02:07:40;;;;;;;5.20;2.50;;;;;;;;;;1030548;28;20097;-77
2022/11/06 02:08:13;;;;;;;4.75;2.42;;;;;;;;;;1030041;28;20235;-77
2022/11/06 02:08:44;;;;;;;3.35;2.15;;;;;;;;;;1030477;28;20073;-77
2022/11/06 02:09:15;;;;;;;9.23;3.20;;;;;;;;;;1030022;28;20032;-76
2022/11/06 02:09:47;;;;;;;3.80;2.72;;;;;;;;;;1030997;28;20023;-76
2022/11/06 02:10:18;;;;;;;6.88;2.83;;;;;;;;;;1034369;28;20029;-77
2022/11/06 02:10:50;;;;;;;8.65;2.70;;;;;;;;;;1034801;28;20026;-77
2022/11/06 02:11:21;;;;;;;7.35;3.53;;;;;;;;;;1029942;28;20038;-77
2022/11/06 02:12:21;;;;;;;4.32;2.72;;;;;;;;;;1030121;28;20117;-77
2022/11/06 02:13:10;;;;;;;8.07;3.17;;;;;;;;;;1028155;28;20069;-78
2022/11/06 02:13:49;;;;;;;4.18;2.67;;;;;;;;;;1030803;28;20011;-77
2022/11/06 02:14:42;;;;;;;7.18;3.08;;;;;;;;;;1025945;28;20058;-77
2022/11/06 02:15:13;;;;;;;10.00;3.10;;;;;;;;;;1033727;28;20025;-77
2022/11/06 02:15:58;;;;;;;7.55;2.70;;;;;;;;;;1029882;28;20045;-77
2022/11/06 02:16:46;;;;;;;4.35;2.35;;;;;;;;;;1029782;28;20030;-77
2022/11/06 02:17:35;;;;;;;4.16;2.60;;;;;;;;;;1030041;28;20033;-77
2022/11/06 02:18:09;;;;;;;6.78;3.20;;;;;;;;;;1034246;28;20018;-77
2022/11/06 02:18:45;;;;;;;10.38;3.78;;;;;;;;;;1034147;28;20050;-76
2022/11/06 02:19:37;;;;;;;6.85;3.15;;;;;;;;;;1030412;28;20113;-77
2022/11/06 02:20:22;;;;;;;5.22;3.08;;;;;;;;;;1030112;28;20441;-77
2022/11/06 02:21:08;;;;;;;5.72;2.90;;;;;;;;;;1026122;28;20031;-77
2022/11/06 02:21:48;;;;;;;6.32;3.30;;;;;;;;;;1027764;28;20023;-76
2022/11/06 02:22:37;;;;;;;6.53;3.00;;;;;;;;;;1030963;28;20045;-77
2022/11/06 02:23:28;;;;;;;4.40;3.05;;;;;;;;;;1035074;28;20504;-77
2022/11/06 02:24:08;;;;;;;4.57;2.63;;;;;;;;;;1028602;28;20731;-77
2022/11/06 02:24:49;;;;;;;5.25;2.42;;;;;;;;;;1026760;28;20035;-77
2022/11/06 02:25:21;;;;;;;5.50;3.03;;;;;;;;;;1034271;28;20026;-77
2022/11/06 02:26:08;;;;;;;4.47;2.17;;;;;;;;;;1030952;28;20385;-77
2022/11/06 02:26:54;;;;;;;9.25;2.85;;;;;;;;;;1035415;28;20033;-77
2022/11/06 02:27:27;;;;;;;6.90;3.03;;;;;;;;;;1027083;28;20528;-77
2022/11/06 02:28:03;;;;;;;5.65;2.65;;;;;;;;;;1026910;28;20033;-77
2022/11/06 02:28:37;;;;;;;8.13;3.00;;;;;;;;;;1031731;28;20030;-77
2022/11/06 02:29:09;;;;;;;4.22;2.60;;;;;;;;;;1034259;28;20030;-77
2022/11/06 02:29:54;;;;;;;6.10;3.10;;;;;;;;;;1030812;28;20023;-77
2022/11/06 02:30:25;;;;;;;6.22;2.65;;;;;;;;;;1034011;28;20084;-77
2022/11/06 02:30:57;;;;;;;7.40;2.35;;;;;;;;;;1035129;28;20128;-77
2022/11/06 02:31:29;;;;;;;4.18;2.55;;;;;;;;;;1034141;28;20186;-77
2022/11/06 02:32:03;;;;;;;5.22;2.45;;;;;;;;;;1033024;28;20117;-77
2022/11/06 02:32:34;;;;;;;7.57;2.85;;;;;;;;;;1026955;28;20033;-78
2022/11/06 02:33:08;;;;;;;6.45;2.78;;;;;;;;;;1027991;28;20093;-77
2022/11/06 02:33:58;;;;;;;4.70;2.53;;;;;;;;;;1028471;28;20062;-77
2022/11/06 02:34:29;;;;;;;6.70;2.88;;;;;;;;;;1025969;28;20066;-78
2022/11/06 02:35:02;;;;;;;5.60;2.45;;;;;;;;;;1027154;28;20401;-77
2022/11/06 02:35:56;;;;;;;7.53;2.88;;;;;;;;;;1033147;28;20532;-78
2022/11/06 02:36:29;;;;;;;5.75;2.72;;;;;;;;;;1025503;28;20957;-78
2022/11/06 02:37:01;;;;;;;5.28;3.00;;;;;;;;;;1034857;28;20026;-77
2022/11/06 02:37:35;;;;;;;4.90;2.88;;;;;;;;;;1030860;28;20071;-77
2022/11/06 02:38:11;;;;;;;5.55;2.35;;;;;;;;;;1031154;28;20545;-78
2022/11/06 02:38:46;;;;;;;6.38;2.72;;;;;;;;;;1032022;28;20026;-77
2022/11/06 02:39:19;;;;;;;6.75;2.83;;;;;;;;;;1029224;28;20094;-77
2022/11/06 02:39:51;;;;;;;3.13;2.10;;;;;;;;;;1027092;28;20038;-77
2022/11/06 02:40:26;;;;;;;7.78;3.13;;;;;;;;;;1027020;28;20651;-77
2022/11/06 02:40:58;;;;;;;5.35;2.50;;;;;;;;;;1023999;28;20367;-77
2022/11/06 02:41:33;;;;;;;6.40;2.45;;;;;;;;;;1023386;29;20069;-78
2022/11/06 02:42:07;;;;;;;6.30;3.00;;;;;;;;;;1024529;28;20041;-77
2022/11/06 02:42:40;;;;;;;8.00;2.78;;;;;;;;;;1032513;28;20035;-76
2022/11/06 02:43:14;;;;;;;5.57;2.60;;;;;;;;;;1035259;28;20468;-77
2022/11/06 02:43:46;;;;;;;6.70;2.47;;;;;;;;;;1034691;28;20062;-77
2022/11/06 02:44:19;;;;;;;5.38;2.55;;;;;;;;;;1031114;28;20034;-77
2022/11/06 02:44:52;;;;;;;7.30;2.70;;;;;;;;;;1031037;28;20025;-77
2022/11/06 02:45:25;;;;;;;10.75;3.40;;;;;;;;;;1027018;28;20019;-77
2022/11/06 02:46:02;;;;;;;7.18;2.35;;;;;;;;;;1031902;28;20748;-77
2022/11/06 02:46:35;;;;;;;5.55;2.45;;;;;;;;;;1031073;28;20607;-77
2022/11/06 02:47:08;;;;;;;4.25;2.10;;;;;;;;;;1028671;28;20026;-77
2022/11/06 02:47:40;;;;;;;4.78;2.45;;;;;;;;;;1027164;28;20019;-77
2022/11/06 02:48:12;;;;;;;4.60;2.30;;;;;;;;;;1027829;28;20029;-77
2022/11/06 02:48:48;;;;;;;5.00;2.50;;;;;;;;;;1028234;28;20015;-77
2022/11/06 02:49:34;;;;;;;6.72;2.85;;;;;;;;;;1028068;28;20026;-77
2022/11/06 02:50:08;;;;;;;8.73;2.75;;;;;;;;;;1026688;28;20011;-78
2022/11/06 02:50:42;;;;;;;5.40;2.45;;;;;;;;;;1028777;28;20105;-76
2022/11/06 02:51:15;;;;;;;5.05;2.70;;;;;;;;;;1030978;28;20018;-77
2022/11/06 02:51:48;;;;;;;3.53;2.10;;;;;;;;;;1031452;28;20015;-77
2022/11/06 02:52:21;;;;;;;4.68;2.30;;;;;;;;;;1027812;28;20457;-77
2022/11/06 02:53:05;;;;;;;4.50;2.10;;;;;;;;;;1031244;28;20077;-77
2022/11/06 02:53:37;;;;;;;7.80;2.88;;;;;;;;;;1031091;28;20540;-77
2022/11/06 02:54:09;;;;;;;6.50;2.00;;;;;;;;;;1034835;28;20029;-77
2022/11/06 02:54:42;;;;;;;5.10;2.08;;;;;;;;;;1035987;28;20048;-77
2022/11/06 02:55:15;;;;;;;5.43;2.42;;;;;;;;;;1030830;28;20025;-77
2022/11/06 02:55:50;;;;;;;5.65;2.53;;;;;;;;;;1030976;28;20026;-77
2022/11/06 02:56:24;;;;;;;5.03;2.65;;;;;;;;;;1030923;28;20422;-77
2022/11/06 02:56:58;;;;;;;4.40;2.45;;;;;;;;;;1030386;28;20014;-77
2022/11/06 02:57:30;;;;;;;6.47;2.35;;;;;;;;;;1030021;28;20054;-76
2022/11/06 02:58:05;;;;;;;4.13;2.25;;;;;;;;;;1030869;28;20027;-77
2022/11/06 02:58:43;;;;;;;4.50;2.05;;;;;;;;;;1026906;28;20022;-77
2022/11/06 02:59:18;;;;;;;6.97;2.97;;;;;;;;;;1028066;28;20019;-77
2022/11/06 02:59:51;;;;;;;4.03;2.45;;;;;;;;;;1029815;28;20110;-77
2022/11/06 03:00:24;;;;;;;7.05;2.58;;;;;;;;;;1032888;28;20045;-77
2022/11/06 03:00:59;;;;;;;5.38;2.00;;;;;;;;;;1034960;28;20018;-77
2022/11/06 03:01:34;;;;;;;8.90;3.08;;;;;;;;;;1035110;28;20388;-78
2022/11/06 03:02:06;;;;;;;3.53;2.40;;;;;;;;;;1034320;28;20045;-76
2022/11/06 03:02:43;;;;;;;8.48;2.50;;;;;;;;;;1030707;28;20022;-78
2022/11/06 03:03:18;;;;;;;4.82;2.47;;;;;;;;;;1030739;28;20102;-76
2022/11/06 03:03:51;;;;;;;5.55;2.50;;;;;;;;;;1030709;28;20342;-77
2022/11/06 03:04:31;;;;;;;6.28;3.05;;;;;;;;;;1028669;28;20050;-77
2022/11/06 03:05:02;;;;;;;4.00;2.53;;;;;;;;;;1027177;28;20023;-76
2022/11/06 03:05:38;;;;;;;8.13;3.30;;;;;;;;;;1026999;28;20027;-77
2022/11/06 03:06:17;;;;;;;4.38;2.30;;;;;;;;;;1031722;28;20017;-77
2022/11/06 03:06:51;;;;;;;4.75;2.53;;;;;;;;;;1030992;28;20062;-75
2022/11/06 03:07:28;;;;;;;5.25;2.50;;;;;;;;;;1031603;28;20018;-77
2022/11/06 03:08:08;;;;;;;5.82;2.30;;;;;;;;;;1030955;28;20029;-76
2022/11/06 03:08:46;;;;;;;5.25;2.40;;;;;;;;;;1031356;28;20022;-77
2022/11/06 03:09:24;;;;;;;4.93;2.30;;;;;;;;;;1031080;28;20646;-76
2022/11/06 03:09:55;;;;;;;4.90;2.60;;;;;;;;;;1033521;28;20085;-77
2022/11/06 03:10:29;;;;;;;9.93;2.97;;;;;;;;;;1034977;28;20022;-76
2022/11/06 03:11:12;;;;;;;6.15;2.85;;;;;;;;;;1030718;28;20019;-76
2022/11/06 03:11:44;;;;;;;7.53;2.80;;;;;;;;;;1033290;28;20026;-76
2022/11/06 03:12:18;;;;;;;5.60;1.73;;;;;;;;;;1035562;28;20028;-76
2022/11/06 03:13:24;;;;;;;3.20;2.00;;;;;;;;;;1037568;28;20032;-78
2022/11/06 03:14:18;;;;;;;7.05;3.17;;;;;;;;;;1022571;29;20054;-77
2022/11/06 03:14:53;;;;;;;7.03;3.58;;;;;;;;;;1023085;29;20070;-77
2022/11/06 03:15:37;;;;;;;5.00;2.35;;;;;;;;;;1022458;29;20070;-77
2022/11/06 03:16:16;;;;;;;5.20;3.10;;;;;;;;;;1022409;29;20027;-76
2022/11/06 03:17:02;;;;;;;4.43;2.35;;;;;;;;;;1025839;28;20034;-77
2022/11/06 03:17:46;;;;;;;7.57;2.63;;;;;;;;;;1027310;28;20145;-78
2022/11/06 03:18:34;;;;;;;9.70;3.75;;;;;;;;;;1029738;28;20398;-77
2022/11/06 03:19:11;;;;;;;5.80;2.30;;;;;;;;;;1026995;28;20027;-78
2022/11/06 03:19:51;;;;;;;11.18;3.25;;;;;;;;;;1031055;28;20026;-78
2022/11/06 03:20:22;;;;;;;6.97;2.13;;;;;;;;;;1031450;28;20065;-77
2022/11/06 03:21:11;;;;;;;8.32;2.97;;;;;;;;;;1031010;28;20031;-78
2022/11/06 03:21:48;;;;;;;6.43;2.40;;;;;;;;;;1030548;28;20100;-77
2022/11/06 03:22:25;;;;;;;4.47;2.50;;;;;;;;;;1034568;28;20068;-77
2022/11/06 03:23:10;;;;;;;5.80;2.47;;;;;;;;;;1035429;28;20026;-77
2022/11/06 03:23:46;;;;;;;7.35;2.40;;;;;;;;;;1031419;28;20031;-77
2022/11/06 03:24:21;;;;;;;5.03;2.97;;;;;;;;;;1031390;28;20777;-77